Time;durP1;ratioP1;P1;durP2;ratioP2;P2;SDS_P1;SDS_P2;PMS_P1;PMS_P2;Temp;Humidity;BMP_temperature;BMP_pressure;BME280_temperature;BME280_humidity;BME280_pressure;Samples;Min_cycle;Max_cycle;Signal;HPM_P1;HPM_P2
2022/06/26 00:00:26;;;;;;;37.75;34.75;;;;;;;20.66;100.00;100794.53;5056349;28;20055;-83
2022/06/26 00:03:04;;;;;;;37.15;34.25;;;;;;;20.92;100.00;100799.91;5056072;28;20444;-84
2022/06/26 00:05:33;;;;;;;47.92;44.30;;;;;;;20.96;100.00;100807.16;5057446;28;20052;-83
2022/06/26 00:08:10;;;;;;;45.72;42.97;;;;;;;20.66;100.00;100812.59;5062107;28;20060;-84
2022/06/26 00:10:49;;;;;;;38.80;35.67;;;;;;;21.06;100.00;100825.28;5059315;28;20436;-83
2022/06/26 00:13:17;;;;;;;44.92;41.85;;;;;;;21.67;100.00;100822.38;5067586;28;20044;-84
2022/06/26 00:15:49;;;;;;;39.00;36.50;;;;;;;21.62;100.00;100803.47;5056363;28;20056;-84
2022/06/26 00:18:16;;;;;;;37.72;35.03;;;;;;;21.90;100.00;100803.88;5059393;28;20049;-83
2022/06/26 00:20:53;;;;;;;43.55;40.38;;;;;;;21.66;100.00;100806.44;5058310;28;20048;-83
2022/06/26 00:23:39;;;;;;;;;;;;;;;;;;;;;
2022/06/26 00:26:13;;;;;;;46.38;43.28;;;;;;;21.41;100.00;100820.88;5074819;28;20404;-84
2022/06/26 00:28:40;;;;;;;43.75;40.33;;;;;;;21.21;100.00;100827.09;5056596;28;20048;-84
2022/06/26 00:31:17;;;;;;;45.85;42.80;;;;;;;21.62;100.00;100827.81;5057234;28;20045;-83
2022/06/26 00:33:45;;;;;;;43.40;40.30;;;;;;;21.71;100.00;100828.03;5060223;28;20068;-84
2022/06/26 00:36:18;;;;;;;46.30;42.67;;;;;;;21.79;100.00;100823.97;5061996;28;20049;-83
2022/06/26 00:38:48;;;;;;;60.78;56.95;;;;;;;21.64;100.00;100822.13;5068302;28;20048;-83
2022/06/26 00:41:15;;;;;;;46.63;43.15;;;;;;;21.25;100.00;100841.69;5067539;28;20110;-85
2022/06/26 00:43:49;;;;;;;116.90;103.13;;;;;;;21.62;100.00;100843.22;5064163;28;20049;-84
2022/06/26 00:46:24;;;;;;;49.05;44.75;;;;;;;21.50;100.00;100851.63;5056383;28;20056;-84
2022/06/26 00:48:57;;;;;;;42.05;38.95;;;;;;;21.25;100.00;100845.19;5057692;28;20124;-84
2022/06/26 00:51:27;;;;;;;40.85;37.85;;;;;;;21.44;100.00;100853.53;5063270;28;20048;-84
2022/06/26 00:54:03;;;;;;;38.15;34.75;;;;;;;21.68;100.00;100848.31;5059025;28;20049;-82
2022/06/26 00:56:45;;;;;;;34.65;31.95;;;;;;;21.71;100.00;100853.16;5062169;28;20125;-82
2022/06/26 00:59:15;;;;;;;;;;;;;;;21.52;100.00;100848.69;5066285;28;20507;-83
2022/06/26 01:01:54;;;;;;;33.75;31.05;;;;;;;21.34;100.00;100855.44;5059904;28;19921;-83
2022/06/26 01:04:31;;;;;;;34.30;30.92;;;;;;;21.62;100.00;100852.13;5066966;28;20510;-84
2022/06/26 01:07:01;;;;;;;35.45;32.83;;;;;;;21.75;100.00;100853.41;5066561;28;20044;-84
2022/06/26 01:09:43;;;;;;;46.15;43.10;;;;;;;21.65;100.00;100854.28;5067209;28;20049;-83
2022/06/26 01:12:15;;;;;;;47.60;44.65;;;;;;;21.53;100.00;100853.78;5059930;28;20052;-83
2022/06/26 01:14:48;;;;;;;28.35;26.10;;;;;;;21.71;100.00;100857.78;5063463;28;20090;-82
2022/06/26 01:17:19;;;;;;;42.85;39.70;;;;;;;21.66;100.00;100858.59;5061247;28;20041;-84
2022/06/26 01:19:49;;;;;;;48.93;45.63;;;;;;;21.53;100.00;100869.19;5066538;28;20119;-84
2022/06/26 01:22:22;;;;;;;44.75;41.65;;;;;;;21.60;100.00;100870.50;5055314;28;20642;-84
2022/06/26 01:24:54;;;;;;;43.13;40.03;;;;;;;21.05;100.00;100872.22;5055678;28;20045;-83
2022/06/26 01:27:24;;;;;;;42.05;38.50;;;;;;;21.27;100.00;100874.63;5056621;28;20106;-83
2022/06/26 01:29:54;;;;;;;38.13;35.35;;;;;;;21.12;100.00;100875.47;5054760;28;20122;-85
2022/06/26 01:32:28;;;;;;;42.13;39.20;;;;;;;21.01;100.00;100871.16;5057130;28;20051;-83
2022/06/26 01:34:57;;;;;;;45.20;41.75;;;;;;;21.07;100.00;100882.78;5060285;28;20047;-83
2022/06/26 01:37:25;;;;;;;46.28;43.20;;;;;;;21.45;100.00;100881.38;5064782;28;20059;-83
2022/06/26 01:39:58;;;;;;;35.28;32.78;;;;;;;21.54;100.00;100881.63;5070026;28;20505;-85
2022/06/26 01:42:29;;;;;;;36.80;34.03;;;;;;;21.50;100.00;100895.66;5059630;28;20049;-83
2022/06/26 01:44:59;;;;;;;43.40;40.40;;;;;;;21.59;100.00;100903.22;5058183;28;20451;-83
2022/06/26 01:47:32;;;;;;;44.50;41.05;;;;;;;21.48;100.00;100892.47;5065944;28;20119;-84
2022/06/26 01:50:06;;;;;;;43.20;39.80;;;;;;;21.54;100.00;100890.53;5071453;28;20040;-82
2022/06/26 01:52:33;;;;;;;43.03;40.17;;;;;;;21.90;100.00;100882.28;5071473;28;20129;-83
2022/06/26 01:55:09;;;;;;;36.08;33.25;;;;;;;21.78;100.00;100892.59;5070233;28;20045;-83
2022/06/26 01:57:42;;;;;;;33.75;31.15;;;;;;;21.52;100.00;100890.00;5065377;28;20366;-82
2022/06/26 02:02:47;;;;;;;45.40;42.03;;;;;;;21.48;100.00;100895.16;5103206;22;20053;-83
2022/06/26 02:05:15;;;;;;;40.22;37.05;;;;;;;21.46;100.00;100891.91;5074986;28;20040;-82
2022/06/26 02:07:43;;;;;;;41.22;38.40;;;;;;;21.47;100.00;100895.41;5069488;28;20049;-83
2022/06/26 02:13:37;;;;;;;40.25;37.25;;;;;;;21.28;100.00;100895.97;5071574;28;20083;-81
2022/06/26 02:16:04;;;;;;;41.20;38.00;;;;;;;20.67;100.00;100889.81;5068645;28;20043;-84
2022/06/26 02:18:32;;;;;;;41.80;38.65;;;;;;;20.73;100.00;100886.03;5069373;28;20052;-84
2022/06/26 02:21:00;;;;;;;43.00;39.35;;;;;;;20.85;100.00;100888.44;5064520;28;20041;-83
2022/06/26 02:23:28;;;;;;;47.58;43.65;;;;;;;20.92;100.00;100897.09;5071878;28;20114;-82
2022/06/26 02:25:55;;;;;;;39.90;36.60;;;;;;;21.12;100.00;100890.84;5066017;28;20114;-82
2022/06/26 02:28:24;;;;;;;50.45;46.35;;;;;;;20.98;100.00;100894.13;5071716;28;20056;-83
2022/06/26 02:30:52;;;;;;;44.15;40.25;;;;;;;21.20;100.00;100887.59;5065617;28;20048;-82
2022/06/26 02:33:22;;;;;;;34.25;31.05;;;;;;;21.13;100.00;100890.59;5063714;28;20526;-82
2022/06/26 02:35:49;;;;;;;45.92;42.13;;;;;;;21.19;100.00;100894.91;5068107;28;20136;-82
2022/06/26 02:38:16;;;;;;;46.80;43.40;;;;;;;21.21;100.00;100891.91;5069528;28;20049;-82
2022/06/26 02:40:43;;;;;;;45.08;41.63;;;;;;;21.18;100.00;100898.69;5070974;28;20079;-84
2022/06/26 02:43:10;;;;;;;38.20;35.00;;;;;;;21.05;100.00;100885.72;5068353;28;20070;-83
2022/06/26 02:45:39;;;;;;;51.08;47.70;;;;;;;21.17;100.00;100888.16;5074251;28;20049;-82
2022/06/26 02:48:09;;;;;;;43.53;40.22;;;;;;;21.13;100.00;100887.09;5069033;28;20057;-84
2022/06/26 02:50:40;;;;;;;36.03;33.25;;;;;;;21.00;100.00;100888.47;5065611;28;20106;-84
2022/06/26 02:53:09;;;;;;;37.55;34.67;;;;;;;21.28;100.00;100887.06;5065772;28;20052;-85
2022/06/26 02:55:40;;;;;;;38.45;35.35;;;;;;;21.27;100.00;100883.56;5078133;28;20067;-85
2022/06/26 02:58:14;;;;;;;34.03;31.25;;;;;;;20.89;100.00;100894.94;5074113;28;20048;-85
2022/06/26 03:00:41;;;;;;;37.05;33.95;;;;;;;20.90;100.00;100897.34;5072020;28;20126;-85
2022/06/26 03:03:10;;;;;;;34.75;32.15;;;;;;;21.09;100.00;100888.69;5079924;28;20122;-86
2022/06/26 03:05:47;;;;;;;33.85;31.15;;;;;;;21.44;100.00;100885.16;5074715;28;20076;-84
2022/06/26 03:08:16;;;;;;;35.35;32.75;;;;;;;21.44;100.00;100887.84;5075155;28;20053;-85
2022/06/26 03:10:53;;;;;;;34.00;31.35;;;;;;;21.15;100.00;100883.03;5075619;28;20396;-85
2022/06/26 03:13:22;;;;;;;35.63;33.00;;;;;;;21.25;100.00;100877.59;5078446;28;20405;-85
2022/06/26 03:15:51;;;;;;;35.17;32.35;;;;;;;21.59;100.00;100889.72;5070314;28;20076;-86
2022/06/26 03:18:20;;;;;;;35.03;32.33;;;;;;;21.58;100.00;100888.91;5074308;28;20060;-84
2022/06/26 03:20:55;;;;;;;34.67;32.13;;;;;;;21.34;100.00;100895.97;5075874;28;20048;-85
2022/06/26 03:24:00;;;;;;;34.33;31.58;;;;;;;21.27;100.00;100901.63;5074161;28;20051;-85
2022/06/26 03:26:18;;;;;;;35.03;31.98;;;;;;;21.18;100.00;100903.25;5078773;28;20041;-84
2022/06/26 03:28:52;;;;;;;38.05;34.85;;;;;;;21.10;100.00;100910.03;5069553;28;20080;-84
2022/06/26 03:31:18;;;;;;;38.15;35.25;;;;;;;21.22;100.00;100909.75;5064522;28;20378;-85
2022/06/26 03:33:47;;;;;;;38.65;35.88;;;;;;;20.95;100.00;100905.44;5072929;28;20048;-83
2022/06/26 03:36:14;;;;;;;40.20;37.03;;;;;;;21.30;100.00;100909.19;5078519;28;20036;-85
2022/06/26 03:38:41;;;;;;;40.08;37.08;;;;;;;21.47;100.00;100906.22;5066467;28;20074;-83
2022/06/26 03:41:10;;;;;;;41.65;38.53;;;;;;;21.60;100.00;100907.53;5075196;28;20044;-85
2022/06/26 03:43:39;;;;;;;45.08;41.08;;;;;;;21.46;100.00;100897.31;5075084;28;20075;-85
2022/06/26 03:46:08;;;;;;;43.30;40.15;;;;;;;21.41;100.00;100902.72;5077800;28;20063;-84
2022/06/26 03:48:42;;;;;;;38.15;35.15;;;;;;;21.18;100.00;100908.66;5072930;28;20041;-85
2022/06/26 03:51:17;;;;;;;40.72;37.78;;;;;;;20.99;100.00;100914.63;5077878;28;20062;-84
2022/06/26 03:54:01;;;;;;;40.83;37.83;;;;;;;21.18;100.00;100914.91;5085717;28;20048;-85
2022/06/26 03:56:37;;;;;;;40.78;37.67;;;;;;;21.60;100.00;100915.63;5061025;28;20059;-86
2022/06/26 03:59:10;;;;;;;43.38;40.28;;;;;;;21.73;100.00;100907.78;5077675;28;20404;-85
2022/06/26 04:01:37;;;;;;;37.30;34.53;;;;;;;21.76;100.00;100914.53;5076930;28;20075;-84
2022/06/26 04:04:03;;;;;;;38.58;35.50;;;;;;;21.45;100.00;100919.19;5071165;28;20055;-84
2022/06/26 04:06:32;;;;;;;42.60;39.30;;;;;;;21.36;100.00;100918.13;5077170;28;20071;-84
2022/06/26 04:08:59;;;;;;;41.33;38.20;;;;;;;21.33;100.00;100930.28;5065198;28;20060;-84
2022/06/26 04:11:27;;;;;;;38.90;36.00;;;;;;;21.72;100.00;100933.19;5081429;28;20048;-84
2022/06/26 04:13:56;;;;;;;41.30;38.20;;;;;;;22.01;100.00;100924.44;5079934;28;20051;-85
2022/06/26 04:16:24;;;;;;;39.10;36.33;;;;;;;21.95;100.00;100928.25;5077000;28;20056;-86
2022/06/26 04:19:00;;;;;;;39.30;36.40;;;;;;;22.18;100.00;100930.34;5072482;28;20370;-85
2022/06/26 04:21:27;;;;;;;37.92;35.20;;;;;;;22.14;100.00;100940.03;5070879;28;20528;-84
2022/06/26 04:23:59;;;;;;;39.60;36.60;;;;;;;22.40;100.00;100937.25;5071365;28;20041;-85
2022/06/26 04:26:31;;;;;;;41.33;38.23;;;;;;;22.43;100.00;100938.59;5063311;28;20045;-85
2022/06/26 04:29:01;;;;;;;40.50;37.60;;;;;;;22.38;100.00;100942.13;5073112;28;20392;-85
2022/06/26 04:31:29;;;;;;;37.58;34.97;;;;;;;22.45;100.00;100942.63;5074337;28;20053;-85
2022/06/26 04:34:04;;;;;;;37.45;34.65;;;;;;;22.50;100.00;100939.88;5076338;28;20045;-84
2022/06/26 04:36:31;;;;;;;37.47;34.78;;;;;;;22.55;100.00;100949.88;5072684;28;20044;-85
2022/06/26 04:39:00;;;;;;;38.00;35.20;;;;;;;22.55;100.00;100949.88;5071540;28;20052;-86
2022/06/26 04:41:34;;;;;;;39.15;36.15;;;;;;;22.70;100.00;100959.81;5071090;28;20044;-84
2022/06/26 04:44:03;;;;;;;38.30;35.80;;;;;;;22.70;100.00;100952.50;5066516;28;20045;-84
2022/06/26 04:46:43;;;;;;;36.50;34.00;;;;;;;22.77;100.00;100952.97;5066347;28;20114;-83
2022/06/26 04:49:10;;;;;;;36.13;33.63;;;;;;;22.78;100.00;100960.00;5079148;28;20037;-85
2022/06/26 04:51:43;;;;;;;33.40;31.10;;;;;;;22.63;100.00;100955.50;5078104;28;20056;-86
2022/06/26 04:54:13;;;;;;;34.20;31.50;;;;;;;22.74;100.00;100960.84;5080202;28;20041;-85
2022/06/26 04:56:46;;;;;;;36.58;33.35;;;;;;;23.10;100.00;100953.28;5080527;28;20075;-85
2022/06/26 04:59:13;;;;;;;37.83;34.28;;;;;;;23.04;100.00;100957.13;5082475;28;20110;-85
2022/06/26 05:01:40;;;;;;;36.05;33.03;;;;;;;23.16;100.00;100967.59;5075935;28;20079;-85
2022/06/26 05:04:26;;;;;;;34.08;30.58;;;;;;;22.95;100.00;100966.97;5073731;28;20485;-85
2022/06/26 05:06:55;;;;;;;33.47;30.95;;;;;;;23.28;100.00;100960.72;5064978;28;20045;-85
2022/06/26 05:09:25;;;;;;;34.10;31.70;;;;;;;23.49;100.00;100974.06;5078036;28;20044;-85
2022/06/26 05:11:54;;;;;;;31.63;29.52;;;;;;;23.52;100.00;100973.50;5075389;28;20061;-83
2022/06/26 05:14:28;;;;;;;32.83;30.73;;;;;;;23.49;100.00;100977.59;5075311;28;20493;-84
2022/06/26 05:17:03;;;;;;;32.45;30.35;;;;;;;23.82;100.00;100974.31;5076670;28;20558;-84
2022/06/26 05:19:36;;;;;;;31.98;29.55;;;;;;;24.13;100.00;100975.56;5060219;28;20461;-85
2022/06/26 05:22:06;;;;;;;32.35;30.15;;;;;;;24.11;100.00;100980.44;5070709;28;20491;-84
2022/06/26 05:24:35;;;;;;;30.83;28.52;;;;;;;24.80;100.00;100982.81;5077782;28;20409;-83
2022/06/26 05:27:02;;;;;;;30.50;28.45;;;;;;;24.41;100.00;100981.97;5072182;28;20044;-83
2022/06/26 05:29:34;;;;;;;31.00;28.70;;;;;;;23.90;100.00;100979.88;5072032;28;20056;-84
2022/06/26 05:32:02;;;;;;;32.13;29.55;;;;;;;23.94;100.00;100980.94;5073476;28;20040;-84
2022/06/26 05:34:29;;;;;;;31.23;29.15;;;;;;;23.68;100.00;100990.41;5069907;28;20048;-82
2022/06/26 05:36:58;;;;;;;34.20;31.45;;;;;;;23.91;100.00;100989.66;5063049;28;20048;-82
2022/06/26 05:39:25;;;;;;;34.00;30.02;;;;;;;23.97;100.00;100991.22;5068122;28;20037;-81
2022/06/26 05:41:53;;;;;;;31.85;29.77;;;;;;;23.54;100.00;100996.53;5060436;28;20040;-81
2022/06/26 05:44:21;;;;;;;31.45;29.23;;;;;;;24.05;100.00;100991.66;5072820;28;20428;-84
2022/06/26 05:46:49;;;;;;;30.90;28.55;;;;;;;23.95;100.00;100989.88;5072305;28;20056;-84
2022/06/26 05:49:16;;;;;;;32.15;29.85;;;;;;;24.12;100.00;101000.28;5073347;28;20059;-84
2022/06/26 05:51:43;;;;;;;31.90;29.85;;;;;;;23.90;100.00;100990.72;5075591;28;20075;-84
2022/06/26 05:54:10;;;;;;;33.13;30.67;;;;;;;23.57;100.00;100994.31;5070424;28;20053;-85
2022/06/26 05:56:38;;;;;;;30.67;28.38;;;;;;;23.91;100.00;100989.66;5062997;28;20165;-82
2022/06/26 05:59:06;;;;;;;32.60;30.33;;;;;;;24.06;100.00;100994.09;5072542;28;20051;-83
2022/06/26 06:01:33;;;;;;;30.38;28.00;;;;;;;23.83;100.00;100986.75;5068881;28;20057;-82
2022/06/26 06:04:02;;;;;;;30.88;28.55;;;;;;;23.72;100.00;100996.91;5072816;28;20487;-82
2022/06/26 06:06:29;;;;;;;31.05;28.65;;;;;;;23.80;100.00;100992.75;5064036;28;20111;-84
2022/06/26 06:08:55;;;;;;;30.55;28.15;;;;;;;23.84;100.00;100991.09;5063344;28;20040;-82
2022/06/26 06:11:22;;;;;;;29.88;27.67;;;;;;;24.31;100.00;101000.31;5064093;28;20048;-82
2022/06/26 06:13:51;;;;;;;29.00;27.00;;;;;;;23.94;100.00;100999.94;5075100;28;20047;-83
2022/06/26 06:16:19;;;;;;;29.90;27.23;;;;;;;24.20;100.00;100996.91;5069176;28;20394;-83
2022/06/26 06:18:46;;;;;;;30.35;28.13;;;;;;;24.83;100.00;100993.09;5069059;28;20056;-83
2022/06/26 06:21:16;;;;;;;31.05;29.05;;;;;;;25.04;100.00;100994.38;5073436;28;20058;-83
2022/06/26 06:23:44;;;;;;;33.70;31.02;;;;;;;24.20;100.00;100994.19;5071632;28;20055;-82
2022/06/26 06:26:25;;;;;;;30.88;28.67;;;;;;;23.58;100.00;100988.63;5077712;28;20045;-84
2022/06/26 06:28:52;;;;;;;31.63;29.50;;;;;;;23.90;100.00;100993.44;5068535;28;20040;-83
2022/06/26 06:31:20;;;;;;;32.58;30.17;;;;;;;24.39;100.00;100991.53;5071924;28;20072;-82
2022/06/26 06:33:49;;;;;;;35.33;32.72;;;;;;;24.05;100.00;100997.09;5076577;28;20052;-88
2022/06/26 06:36:24;;;;;;;34.22;31.85;;;;;;;24.65;100.00;100992.78;5074732;28;20067;-84
2022/06/26 06:38:51;;;;;;;33.58;31.27;;;;;;;25.05;100.00;101001.44;5080597;28;20048;-85
2022/06/26 06:41:20;;;;;;;33.65;31.02;;;;;;;24.62;100.00;100993.38;5079860;28;20071;-84
2022/06/26 06:44:05;;;;;;;33.25;30.88;;;;;;;24.60;100.00;100990.16;5073742;28;20526;-86
2022/06/26 06:46:39;;;;;;;35.85;32.47;;;;;;;24.59;100.00;100993.16;5072853;28;20060;-85
2022/06/26 06:49:08;;;;;;;32.00;29.73;;;;;;;25.19;100.00;100998.78;5077265;28;20048;-85
2022/06/26 06:51:44;;;;;;;31.63;28.98;;;;;;;24.60;100.00;100997.47;5074206;28;20040;-86
2022/06/26 06:54:13;;;;;;;32.28;29.75;;;;;;;24.89;100.00;101000.84;5076539;28;20458;-85
2022/06/26 06:56:45;;;;;;;32.65;30.05;;;;;;;24.32;100.00;100996.47;5078535;28;20403;-85
2022/06/26 06:59:14;;;;;;;44.88;41.67;;;;;;;24.00;100.00;101004.19;5074707;28;20053;-85
2022/06/26 07:01:43;;;;;;;34.50;31.65;;;;;;;24.22;100.00;101005.56;5077897;28;20048;-84
2022/06/26 07:04:11;;;;;;;30.90;28.70;;;;;;;24.90;100.00;100999.78;5078557;28;20048;-84
2022/06/26 07:06:43;;;;;;;31.88;29.35;;;;;;;24.63;100.00;101000.44;5065395;28;20090;-84
2022/06/26 07:09:10;;;;;;;33.08;30.42;;;;;;;25.17;100.00;101003.72;5070081;28;20044;-85
2022/06/26 07:11:39;;;;;;;30.95;28.15;;;;;;;24.49;100.00;100999.56;5059917;28;20122;-85
2022/06/26 07:14:20;;;;;;;30.00;27.77;;;;;;;25.29;100.00;101000.53;5068287;28;20057;-84
2022/06/26 07:16:49;;;;;;;32.30;29.80;;;;;;;25.69;100.00;101009.91;5076867;28;20122;-84
2022/06/26 07:19:16;;;;;;;35.17;32.10;;;;;;;25.33;100.00;101001.56;5078456;28;20044;-83
2022/06/26 07:21:44;;;;;;;30.98;28.58;;;;;;;26.09;100.00;101001.28;5071706;28;20057;-83
2022/06/26 07:24:11;;;;;;;29.92;27.50;;;;;;;25.92;100.00;101005.38;5075582;28;20060;-82
2022/06/26 07:26:51;;;;;;;31.60;28.77;;;;;;;26.06;100.00;101008.13;5068470;28;20544;-84
2022/06/26 07:29:18;;;;;;;30.27;28.00;;;;;;;25.52;100.00;101005.03;5076185;28;20049;-82
2022/06/26 07:31:46;;;;;;;30.75;28.55;;;;;;;25.58;100.00;101008.47;5073748;28;20064;-84
2022/06/26 07:34:16;;;;;;;32.22;29.98;;;;;;;25.49;100.00;101012.97;5076593;28;20117;-86
2022/06/26 07:36:47;;;;;;;30.50;28.02;;;;;;;25.68;100.00;101010.97;5070486;28;20113;-85
2022/06/26 07:39:16;;;;;;;29.15;26.92;;;;;;;24.91;100.00;101016.88;5072481;28;20055;-85
2022/06/26 07:41:43;;;;;;;33.97;31.23;;;;;;;24.95;100.00;101017.09;5079980;28;20044;-84
2022/06/26 07:44:11;;;;;;;32.45;30.05;;;;;;;24.84;100.00;101019.97;5078401;28;20056;-85
2022/06/26 07:46:43;;;;;;;32.65;29.92;;;;;;;25.08;100.00;101019.88;5074508;28;20060;-87
2022/06/26 07:49:20;;;;;;;35.13;32.60;;;;;;;25.90;100.00;101015.78;5069409;28;20078;-84
2022/06/26 07:51:47;;;;;;;30.83;28.33;;;;;;;25.85;100.00;101021.31;5076184;28;20110;-83
2022/06/26 07:54:18;;;;;;;30.25;27.80;;;;;;;25.39;100.00;101021.28;5072647;28;20049;-83
2022/06/26 07:56:50;;;;;;;32.92;30.00;;;;;;;25.87;100.00;101027.28;5074754;28;20040;-84
2022/06/26 07:59:17;;;;;;;31.77;29.38;;;;;;;26.09;100.00;101025.75;5066974;28;20132;-84
2022/06/26 08:01:45;;;;;;;34.40;31.73;;;;;;;26.52;100.00;101026.25;5059405;28;20547;-85
2022/06/26 08:04:12;;;;;;;32.25;29.45;;;;;;;25.71;100.00;101023.97;5059957;28;20547;-83
2022/06/26 08:06:41;;;;;;;30.38;28.15;;;;;;;25.74;100.00;101028.00;5067181;28;20053;-81
2022/06/26 08:09:08;;;;;;;30.95;28.40;;;;;;;26.54;100.00;101034.09;5057039;28;20052;-85
2022/06/26 08:11:37;;;;;;;31.48;29.08;;;;;;;26.54;100.00;101034.09;5070374;28;20420;-82
2022/06/26 08:14:05;;;;;;;30.83;28.63;;;;;;;26.25;100.00;101036.03;5073803;28;20485;-85
2022/06/26 08:16:32;;;;;;;30.98;28.52;;;;;;;26.32;100.00;101034.81;5065809;28;20052;-84
2022/06/26 08:18:59;;;;;;;30.42;28.25;;;;;;;26.65;100.00;101028.13;5066631;28;20080;-84
2022/06/26 08:24:11;;;;;;;30.33;28.33;;;;;;;26.45;100.00;101036.72;5067869;28;20055;-85
2022/06/26 08:26:46;;;;;;;30.60;28.30;;;;;;;27.02;100.00;101041.72;5055979;28;20051;-84
2022/06/26 08:29:13;;;;;;;30.52;28.15;;;;;;;26.72;100.00;101038.63;5060757;28;20056;-83
2022/06/26 08:31:43;;;;;;;32.08;29.67;;;;;;;26.11;100.00;101051.53;5071553;28;20060;-83
2022/06/26 08:34:10;;;;;;;31.55;29.25;;;;;;;25.92;100.00;101040.75;5074578;28;20059;-82
2022/06/26 08:36:38;;;;;;;33.92;31.25;;;;;;;25.79;100.00;101041.53;5074627;28;20048;-83
2022/06/26 08:39:15;;;;;;;33.53;30.92;;;;;;;25.96;100.00;101047.22;5072882;28;20095;-84
2022/06/26 08:41:43;;;;;;;31.00;28.73;;;;;;;26.07;100.00;101039.66;5057329;28;20056;-84
2022/06/26 08:44:11;;;;;;;32.15;29.60;;;;;;;25.90;100.00;101047.59;5075227;28;20056;-86
2022/06/26 08:46:42;;;;;;;30.83;28.30;;;;;;;25.63;100.00;101045.63;5071695;28;20546;-84
2022/06/26 08:49:13;;;;;;;30.95;28.23;;;;;;;26.23;100.00;101051.88;5074599;28;20048;-83
2022/06/26 08:51:41;;;;;;;33.15;30.10;;;;;;;26.11;100.00;101054.25;5073922;28;20044;-85
2022/06/26 08:54:12;;;;;;;30.55;28.20;;;;;;;25.86;100.00;101055.56;5071382;28;20057;-83
2022/06/26 08:56:43;;;;;;;30.52;28.25;;;;;;;25.77;100.00;101054.63;5076466;28;20467;-85
2022/06/26 08:59:15;;;;;;;30.10;27.75;;;;;;;25.98;100.00;101050.44;5075621;28;20378;-85
2022/06/26 09:01:43;;;;;;;31.43;28.50;;;;;;;25.64;100.00;101050.78;5068691;28;20049;-84
2022/06/26 09:04:12;;;;;;;31.75;29.13;;;;;;;25.56;100.00;101051.44;5073118;28;20125;-82
2022/06/26 09:06:42;;;;;;;31.23;28.88;;;;;;;25.88;100.00;101053.38;5073100;28;20041;-84
2022/06/26 09:09:22;;;;;;;32.75;30.33;;;;;;;26.19;100.00;101067.19;5070711;28;20064;-84
2022/06/26 09:11:52;;;;;;;30.42;28.33;;;;;;;25.92;100.00;101062.53;5057771;28;20045;-85
2022/06/26 09:14:22;;;;;;;31.17;28.63;;;;;;;25.78;100.00;101056.22;5071703;28;20045;-84
2022/06/26 09:17:05;;;;;;;31.20;28.60;;;;;;;25.89;100.00;101057.69;5065360;28;20056;-85
2022/06/26 09:19:43;;;;;;;;;;;;;;;26.37;100.00;101060.00;5069967;28;20040;-86
2022/06/26 09:22:13;;;;;;;30.60;28.13;;;;;;;26.46;100.00;101060.91;5076961;28;19920;-85
2022/06/26 09:24:53;;;;;;;31.85;29.15;;;;;;;26.07;100.00;101056.00;5071399;28;20041;-84
2022/06/26 09:27:23;;;;;;;30.77;28.17;;;;;;;26.06;100.00;101068.00;5074286;28;20091;-86
2022/06/26 09:29:52;;;;;;;30.10;27.35;;;;;;;26.13;100.00;101068.38;5074703;28;20098;-84
2022/06/26 09:32:21;;;;;;;30.52;27.88;;;;;;;25.98;100.00;101065.97;5060908;28;20045;-86
2022/06/26 09:34:50;;;;;;;30.17;27.58;;;;;;;26.11;100.00;101065.16;5061620;28;20048;-86
2022/06/26 09:37:18;;;;;;;30.52;28.10;;;;;;;26.26;100.00;101069.50;5064918;28;20114;-85
2022/06/26 09:39:47;;;;;;;31.80;29.30;;;;;;;26.23;100.00;101070.94;5069566;28;20067;-87
2022/06/26 09:42:19;;;;;;;31.88;29.30;;;;;;;25.62;100.00;101073.94;5069967;28;20054;-87
2022/06/26 09:44:56;;;;;;;31.38;28.75;;;;;;;25.75;100.00;101078.59;5075270;28;20049;-88
2022/06/26 09:47:24;;;;;;;29.42;27.13;;;;;;;26.08;100.00;101081.28;5077833;28;20049;-87
2022/06/26 09:49:53;;;;;;;30.08;27.60;;;;;;;26.15;100.00;101073.53;5066648;28;20052;-85
2022/06/26 09:52:30;;;;;;;29.73;27.17;;;;;;;26.32;100.00;101075.66;5073772;28;20113;-87
2022/06/26 09:55:00;;;;;;;28.83;26.60;;;;;;;26.07;100.00;101074.25;5075747;28;20041;-86
2022/06/26 09:57:29;;;;;;;31.42;28.98;;;;;;;25.91;100.00;101071.81;5078369;28;20392;-85
2022/06/26 09:59:59;;;;;;;32.10;29.65;;;;;;;25.63;100.00;101075.53;5074483;28;20045;-86
2022/06/26 10:08:33;;;;;;;34.30;31.45;;;;;;;25.89;100.00;101073.22;5061879;28;20051;-86
2022/06/26 10:11:06;;;;;;;31.65;29.40;;;;;;;26.12;100.00;101079.59;5080246;28;20063;-86
2022/06/26 10:13:38;;;;;;;31.13;28.58;;;;;;;26.16;100.00;101083.31;5079386;28;20492;-88
2022/06/26 10:16:46;;;;;;;31.27;28.90;;;;;;;26.56;100.00;101072.72;5079096;28;20055;-86
2022/06/26 10:19:23;;;;;;;30.52;28.52;;;;;;;26.45;100.00;101072.94;5073463;28;20400;-86
2022/06/26 10:21:58;;;;;;;30.38;27.95;;;;;;;26.48;100.00;101069.59;5078337;28;20052;-86
2022/06/26 10:24:32;;;;;;;30.65;28.38;;;;;;;26.45;100.00;101075.66;5072423;28;20049;-85
2022/06/26 10:27:02;;;;;;;29.80;27.20;;;;;;;25.99;100.00;101073.00;5077623;28;20059;-86
2022/06/26 10:29:41;;;;;;;29.63;27.25;;;;;;;26.49;100.00;101073.16;5078741;28;20381;-87
2022/06/26 10:32:23;;;;;;;30.13;27.77;;;;;;;26.47;100.00;101070.69;5079912;28;20037;-86
2022/06/26 10:35:17;;;;;;;31.50;28.67;;;;;;;26.68;100.00;101067.56;5075869;28;20052;-85
2022/06/26 10:37:47;;;;;;;32.20;29.77;;;;;;;26.55;100.00;101073.84;5077560;28;20055;-85
2022/06/26 10:43:04;;;;;;;32.22;29.40;;;;;;;26.79;100.00;101063.50;5073983;28;20139;-85
2022/06/26 10:45:34;;;;;;;33.35;30.25;;;;;;;26.49;100.00;101059.53;5071539;28;20049;-85
2022/06/26 10:48:05;;;;;;;31.88;29.38;;;;;;;26.72;100.00;101055.75;5073524;28;20048;-84
2022/06/26 10:50:45;;;;;;;32.83;30.38;;;;;;;27.17;100.00;101042.22;5076239;28;20098;-85
2022/06/26 10:53:17;;;;;;;34.65;31.80;;;;;;;27.28;100.00;101041.97;5066551;28;20052;-84
2022/06/26 10:55:51;;;;;;;32.83;29.90;;;;;;;26.60;100.00;101043.78;5077272;28;20052;-86
2022/06/26 10:58:21;;;;;;;31.08;28.73;;;;;;;26.57;100.00;101047.94;5073358;28;20049;-86
2022/06/26 11:00:48;;;;;;;32.78;30.42;;;;;;;26.70;100.00;101040.84;5080686;22;20052;-85
2022/06/26 11:03:18;;;;;;;34.08;31.48;;;;;;;26.43;100.00;101039.75;5081934;28;20121;-84
2022/06/26 11:05:58;;;;;;;34.95;31.30;;;;;;;26.22;100.00;101044.00;5088383;28;20059;-85
2022/06/26 11:08:36;;;;;;;33.25;30.33;;;;;;;26.16;100.00;101040.56;5091698;28;20048;-86
2022/06/26 11:11:07;;;;;;;31.15;28.73;;;;;;;26.11;100.00;101034.41;5090557;28;20079;-86
2022/06/26 11:13:36;;;;;;;32.63;29.85;;;;;;;25.81;100.00;101036.59;5088099;28;20058;-85
2022/06/26 11:16:07;;;;;;;33.63;30.75;;;;;;;25.80;100.00;101026.81;5088642;28;20048;-87
2022/06/26 11:18:48;;;;;;;33.38;30.55;;;;;;;25.87;100.00;101029.16;5091380;28;20077;-85
2022/06/26 11:21:40;;;;;;;31.83;28.77;;;;;;;25.73;100.00;101031.84;5089504;28;20068;-87
2022/06/26 11:24:09;;;;;;;32.75;29.95;;;;;;;25.73;100.00;101029.13;5094666;28;20301;-85
2022/06/26 11:26:40;;;;;;;35.22;31.90;;;;;;;25.20;100.00;101032.22;5090081;28;20044;-87
2022/06/26 11:29:17;;;;;;;34.13;31.13;;;;;;;25.72;100.00;101031.06;5090273;28;20044;-84
2022/06/26 11:31:54;;;;;;;32.90;30.10;;;;;;;25.74;100.00;101031.53;5093564;28;20126;-84
2022/06/26 11:34:23;;;;;;;34.88;31.55;;;;;;;25.16;100.00;101036.63;5097422;28;20138;-85
2022/06/26 11:36:55;;;;;;;34.17;31.15;;;;;;;25.12;100.00;101029.03;5096755;28;20138;-85
2022/06/26 11:39:40;;;;;;;31.98;29.30;;;;;;;25.44;100.00;101029.38;5091228;28;20383;-88